createdAt,value
2018-07-31T00:01:36.580Z,25.01
2018-07-31T00:04:04.727Z,24.93
2018-07-31T00:06:33.289Z,24.87
2018-07-31T00:09:01.953Z,24.80
2018-07-31T00:11:30.572Z,24.72
2018-07-31T00:13:59.088Z,24.67
2018-07-31T00:16:27.774Z,24.67
2018-07-31T00:18:56.293Z,24.68
2018-07-31T00:21:24.925Z,24.69
2018-07-31T00:23:53.847Z,24.72
2018-07-31T00:26:22.583Z,24.72
2018-07-31T00:28:51.879Z,24.71
2018-07-31T00:31:21.370Z,24.71
2018-07-31T00:33:49.703Z,24.71
2018-07-31T00:36:18.550Z,24.70
2018-07-31T00:38:47.029Z,24.69
2018-07-31T00:41:15.092Z,24.68
2018-07-31T00:43:43.265Z,24.68
2018-07-31T00:46:11.329Z,24.65
2018-07-31T00:48:39.360Z,24.59
2018-07-31T00:51:07.412Z,24.50
2018-07-31T00:53:35.512Z,24.46
2018-07-31T00:56:03.657Z,24.44
2018-07-31T00:58:31.959Z,24.43
2018-07-31T01:01:00.046Z,24.44
2018-07-31T01:03:28.054Z,24.44
2018-07-31T01:05:56.099Z,24.43
2018-07-31T01:08:24.164Z,24.41
2018-07-31T01:10:52.234Z,24.39
2018-07-31T01:13:20.256Z,24.39
2018-07-31T01:15:48.312Z,24.39
2018-07-31T01:18:16.345Z,24.36
2018-07-31T01:20:47.686Z,24.33
2018-07-31T01:23:15.726Z,24.33
2018-07-31T01:25:43.768Z,24.29
2018-07-31T01:28:11.835Z,24.20
2018-07-31T01:30:39.876Z,24.04
2018-07-31T01:33:07.944Z,23.96
2018-07-31T01:35:36.002Z,23.92
2018-07-31T01:38:04.047Z,23.85
2018-07-31T01:40:32.081Z,23.77
2018-07-31T01:43:00.120Z,23.74
2018-07-31T01:45:28.151Z,23.68
2018-07-31T01:47:56.208Z,23.64
2018-07-31T01:50:24.250Z,23.60
2018-07-31T01:52:52.274Z,23.58
2018-07-31T01:55:20.335Z,23.57
2018-07-31T01:57:48.367Z,23.57
2018-07-31T02:00:16.556Z,23.53
2018-07-31T02:02:45.820Z,23.49
2018-07-31T02:05:14.047Z,23.47
2018-07-31T02:07:42.118Z,23.47
2018-07-31T02:10:10.160Z,23.44
2018-07-31T02:12:38.208Z,23.45
2018-07-31T02:15:06.677Z,23.44
2018-07-31T02:17:34.731Z,23.43
2018-07-31T02:20:02.867Z,23.37
2018-07-31T02:22:31.284Z,23.36
2018-07-31T02:24:59.643Z,23.34
2018-07-31T02:27:27.924Z,23.30
2018-07-31T02:30:01.442Z,23.30
2018-07-31T02:32:29.789Z,23.32
2018-07-31T02:34:58.343Z,23.29
2018-07-31T02:37:26.923Z,23.28
2018-07-31T02:39:55.708Z,23.26
2018-07-31T02:42:24.493Z,23.27
2018-07-31T02:44:53.328Z,23.26
2018-07-31T02:47:22.842Z,23.27
2018-07-31T02:49:51.767Z,23.27
2018-07-31T02:52:20.564Z,23.27
2018-07-31T02:54:49.671Z,23.27
2018-07-31T02:57:17.924Z,23.25
2018-07-31T02:59:45.980Z,23.25
2018-07-31T03:02:14.051Z,23.22
2018-07-31T03:04:42.094Z,23.20
2018-07-31T03:07:10.153Z,23.17
2018-07-31T03:09:38.196Z,23.12
2018-07-31T03:12:06.256Z,23.09
2018-07-31T03:14:34.333Z,23.06
2018-07-31T03:17:02.611Z,23.00
2018-07-31T03:19:31.068Z,23.01
2018-07-31T03:21:59.660Z,22.98
2018-07-31T03:24:28.121Z,22.92
2018-07-31T03:26:56.497Z,22.87
2018-07-31T03:29:25.692Z,22.85
2018-07-31T03:31:55.000Z,22.83
2018-07-31T03:34:23.431Z,22.82
2018-07-31T03:36:51.787Z,22.81
2018-07-31T03:39:20.835Z,22.75
2018-07-31T03:41:49.459Z,22.76
2018-07-31T03:44:17.568Z,22.73
2018-07-31T03:46:45.658Z,22.82
2018-07-31T03:49:13.726Z,22.84
2018-07-31T03:51:41.772Z,22.82
2018-07-31T03:54:09.835Z,22.82
2018-07-31T03:56:37.903Z,22.77
2018-07-31T03:59:05.962Z,22.75
2018-07-31T04:01:34.038Z,22.76
2018-07-31T04:04:02.087Z,22.81
2018-07-31T04:06:30.153Z,22.87
2018-07-31T04:08:58.199Z,22.90
2018-07-31T04:11:26.229Z,22.95
2018-07-31T04:13:54.270Z,23.00
2018-07-31T04:16:22.315Z,23.02
2018-07-31T04:18:50.340Z,23.00
2018-07-31T04:21:18.391Z,22.99
2018-07-31T04:23:46.428Z,23.04
2018-07-31T04:26:14.551Z,23.07
2018-07-31T04:28:42.584Z,23.09
2018-07-31T04:31:10.663Z,23.13
2018-07-31T04:33:38.712Z,23.18
2018-07-31T04:36:06.774Z,23.25
2018-07-31T04:38:34.820Z,23.36
2018-07-31T04:41:02.891Z,23.39
2018-07-31T04:43:30.927Z,23.34
2018-07-31T04:45:58.951Z,23.32
2018-07-31T04:48:27.004Z,23.33
2018-07-31T04:50:55.032Z,23.42
2018-07-31T04:53:23.084Z,23.70
2018-07-31T04:55:51.120Z,24.24
2018-07-31T04:58:19.416Z,24.76
2018-07-31T05:00:47.473Z,25.41
2018-07-31T05:03:15.534Z,26.04
2018-07-31T05:05:43.551Z,26.73
2018-07-31T05:08:11.603Z,27.31
2018-07-31T05:10:39.732Z,27.84
2018-07-31T05:13:07.780Z,28.31
2018-07-31T05:15:35.858Z,28.58
2018-07-31T05:18:03.907Z,29.07
2018-07-31T05:20:31.941Z,29.58
2018-07-31T05:22:59.983Z,29.66
2018-07-31T05:25:28.028Z,29.25
2018-07-31T05:27:56.423Z,29.12
2018-07-31T05:30:24.459Z,29.22
2018-07-31T05:32:52.553Z,29.01
2018-07-31T05:35:20.547Z,28.88
2018-07-31T05:37:48.573Z,28.51
2018-07-31T05:40:16.599Z,28.15
2018-07-31T05:42:44.626Z,27.80
2018-07-31T05:45:12.675Z,27.54
2018-07-31T05:47:41.006Z,28.03
2018-07-31T05:50:09.893Z,28.72
2018-07-31T05:52:38.176Z,29.16
2018-07-31T05:55:06.330Z,29.58
2018-07-31T05:57:34.650Z,30.01
2018-07-31T06:00:02.820Z,30.46
2018-07-31T06:02:31.092Z,30.90
2018-07-31T06:04:59.343Z,31.21
2018-07-31T06:07:27.585Z,31.08
2018-07-31T06:09:56.135Z,31.27
2018-07-31T06:12:24.455Z,31.82
2018-07-31T06:14:52.494Z,32.41
2018-07-31T06:17:20.527Z,32.11
2018-07-31T06:19:48.559Z,32.04
2018-07-31T06:22:16.608Z,32.08
2018-07-31T06:24:44.648Z,32.86
2018-07-31T06:27:12.688Z,33.54
2018-07-31T06:29:40.955Z,33.81
2018-07-31T06:32:09.173Z,34.36
2018-07-31T06:34:37.199Z,34.33
2018-07-31T06:37:05.432Z,34.38
2018-07-31T06:39:33.468Z,34.30
2018-07-31T06:42:01.500Z,34.90
2018-07-31T06:44:44.533Z,35.59
2018-07-31T06:47:12.563Z,36.07
2018-07-31T06:49:40.620Z,36.27
2018-07-31T06:52:08.662Z,36.71
2018-07-31T06:54:36.712Z,36.93
2018-07-31T06:57:04.751Z,37.03
2018-07-31T06:59:32.819Z,37.21
2018-07-31T07:02:00.892Z,37.42
2018-07-31T07:04:28.909Z,37.55
2018-07-31T07:06:57.208Z,37.78
2018-07-31T07:09:25.231Z,38.04
2018-07-31T07:11:53.267Z,38.15
2018-07-31T07:14:21.320Z,38.33
2018-07-31T07:16:49.380Z,38.44
2018-07-31T07:19:17.430Z,38.24
2018-07-31T07:21:45.483Z,37.95
2018-07-31T07:27:03.738Z,37.54
2018-07-31T07:29:31.763Z,37.65
2018-07-31T07:31:59.794Z,37.64
2018-07-31T07:34:27.909Z,37.44
2018-07-31T07:36:55.959Z,36.72
2018-07-31T07:39:23.995Z,35.98
2018-07-31T07:41:52.047Z,35.35
2018-07-31T07:44:20.139Z,34.60
2018-07-31T07:46:48.200Z,34.15
2018-07-31T07:49:16.239Z,34.30
2018-07-31T07:51:44.295Z,34.91
2018-07-31T07:54:12.420Z,35.19
2018-07-31T07:56:40.386Z,34.80
2018-07-31T07:59:08.422Z,34.45
2018-07-31T08:01:36.503Z,34.68
2018-07-31T08:04:04.541Z,35.15
2018-07-31T08:06:32.617Z,35.51
2018-07-31T08:09:00.861Z,36.01
2018-07-31T08:11:28.884Z,36.44
2018-07-31T08:13:56.911Z,36.73
2018-07-31T08:16:24.969Z,36.79
2018-07-31T08:18:53.031Z,36.81
2018-07-31T08:21:21.067Z,36.96
2018-07-31T08:23:49.159Z,37.12
2018-07-31T08:26:17.251Z,37.30
2018-07-31T08:28:45.300Z,37.54
2018-07-31T08:31:13.380Z,37.65
2018-07-31T08:33:41.440Z,37.51
2018-07-31T08:36:09.480Z,37.43
2018-07-31T08:38:37.634Z,37.53
2018-07-31T08:41:05.703Z,37.45
2018-07-31T08:43:33.825Z,37.33
2018-07-31T08:46:01.890Z,37.54
2018-07-31T08:48:29.961Z,37.39
2018-07-31T08:50:58.004Z,37.48
2018-07-31T08:53:26.444Z,37.51
2018-07-31T08:55:54.513Z,37.08
2018-07-31T08:58:22.531Z,36.81
2018-07-31T09:00:50.586Z,36.61
2018-07-31T09:03:18.671Z,36.58
2018-07-31T09:05:46.704Z,36.49
2018-07-31T09:08:14.919Z,36.51
2018-07-31T09:10:43.014Z,36.48
2018-07-31T09:13:11.040Z,36.60
2018-07-31T09:15:39.078Z,36.72
2018-07-31T09:18:07.120Z,36.41
2018-07-31T09:20:35.156Z,36.17
2018-07-31T09:23:03.219Z,36.45
2018-07-31T09:25:36.728Z,36.96
2018-07-31T09:28:04.787Z,37.37
2018-07-31T09:30:32.855Z,37.70
2018-07-31T09:33:08.199Z,38.01
2018-07-31T09:35:36.802Z,38.40
2018-07-31T09:38:04.880Z,38.62
2018-07-31T09:40:32.915Z,38.99
2018-07-31T09:43:00.992Z,39.24
2018-07-31T09:45:29.296Z,39.63
2018-07-31T09:47:57.351Z,39.88
2018-07-31T09:50:25.367Z,40.01
2018-07-31T09:52:53.411Z,39.96
2018-07-31T09:55:28.233Z,39.82
2018-07-31T09:57:56.239Z,39.90
2018-07-31T10:00:29.711Z,39.68
2018-07-31T10:02:57.759Z,39.68
2018-07-31T10:05:25.850Z,39.13
2018-07-31T10:07:53.835Z,38.66
2018-07-31T10:10:21.863Z,38.30
2018-07-31T10:12:49.907Z,37.96
2018-07-31T10:15:17.954Z,37.66
2018-07-31T10:17:46.039Z,37.34
2018-07-31T10:20:14.007Z,36.96
2018-07-31T10:22:42.056Z,36.80
2018-07-31T10:25:10.095Z,36.75
2018-07-31T10:27:38.168Z,36.58
2018-07-31T10:30:06.799Z,36.55
2018-07-31T10:32:34.882Z,36.41
2018-07-31T10:35:02.895Z,36.36
2018-07-31T10:37:30.972Z,36.37
2018-07-31T10:39:58.983Z,36.24
2018-07-31T10:42:27.200Z,36.25
2018-07-31T10:44:55.254Z,36.29
2018-07-31T10:47:23.303Z,36.20
2018-07-31T10:49:51.347Z,36.14
2018-07-31T10:52:19.396Z,36.06
2018-07-31T10:54:47.438Z,36.06
2018-07-31T10:57:15.468Z,36.08
2018-07-31T10:59:43.630Z,36.06
2018-07-31T11:02:11.594Z,36.00
2018-07-31T11:04:39.652Z,35.94
2018-07-31T11:07:07.671Z,35.96
2018-07-31T11:09:35.772Z,35.99
2018-07-31T11:12:03.939Z,36.03
2018-07-31T11:14:31.964Z,36.00
2018-07-31T11:17:00.104Z,36.00
2018-07-31T11:19:28.127Z,35.99
2018-07-31T11:21:56.161Z,36.01
2018-07-31T11:24:24.272Z,36.05
2018-07-31T11:26:52.320Z,36.06
2018-07-31T11:29:20.351Z,36.12
2018-07-31T11:31:48.511Z,36.17
2018-07-31T11:34:16.736Z,36.18
2018-07-31T11:36:45.207Z,36.22
2018-07-31T11:39:13.424Z,36.30
2018-07-31T11:41:41.491Z,36.24
2018-07-31T11:44:09.540Z,36.17
2018-07-31T11:46:37.976Z,36.06
2018-07-31T11:49:06.358Z,36.07
2018-07-31T11:51:34.607Z,36.06
2018-07-31T11:54:02.735Z,36.06
2018-07-31T11:56:30.933Z,35.95
2018-07-31T11:58:59.519Z,35.81
2018-07-31T12:01:27.832Z,35.65
2018-07-31T12:03:56.223Z,35.63
2018-07-31T12:06:24.282Z,35.68
2018-07-31T12:08:53.173Z,35.60
2018-07-31T12:11:21.259Z,35.52
2018-07-31T12:13:49.344Z,35.48
2018-07-31T12:16:17.429Z,35.42
2018-07-31T12:18:45.445Z,35.42
2018-07-31T12:21:13.499Z,35.48
2018-07-31T12:23:41.587Z,35.54
2018-07-31T12:26:09.597Z,35.53
2018-07-31T12:28:37.663Z,35.51
2018-07-31T12:31:05.756Z,35.46
2018-07-31T12:33:33.823Z,35.35
2018-07-31T12:36:01.942Z,35.33
2018-07-31T12:38:30.190Z,35.48
2018-07-31T12:40:58.301Z,35.61
2018-07-31T12:43:26.507Z,35.78
2018-07-31T12:45:54.672Z,35.90
2018-07-31T12:48:22.945Z,36.06
2018-07-31T12:50:51.225Z,36.10
2018-07-31T12:53:19.464Z,35.98
2018-07-31T12:55:47.644Z,35.95
2018-07-31T12:58:15.906Z,36.01
2018-07-31T13:00:44.077Z,36.07
2018-07-31T13:03:12.191Z,36.19
2018-07-31T13:05:41.165Z,36.27
2018-07-31T13:08:09.211Z,36.33
2018-07-31T13:10:37.289Z,36.29
2018-07-31T13:13:05.322Z,36.27
2018-07-31T13:15:33.347Z,36.28
2018-07-31T13:18:01.472Z,36.22
2018-07-31T13:20:29.492Z,36.08
2018-07-31T13:22:57.592Z,35.84
2018-07-31T13:25:25.579Z,35.70
2018-07-31T13:27:53.665Z,35.53
2018-07-31T13:30:21.638Z,35.22
2018-07-31T13:32:49.784Z,35.33
2018-07-31T13:35:17.832Z,35.34
2018-07-31T13:37:45.864Z,35.43
2018-07-31T13:40:13.928Z,35.36
2018-07-31T13:42:41.986Z,34.99
2018-07-31T13:45:10.029Z,34.82
2018-07-31T13:47:38.072Z,34.67
2018-07-31T13:50:06.125Z,34.60
2018-07-31T13:52:34.154Z,34.65
2018-07-31T13:55:02.204Z,34.75
2018-07-31T13:57:30.229Z,34.83
2018-07-31T13:59:58.262Z,34.87
2018-07-31T14:02:26.293Z,34.85
2018-07-31T14:04:54.337Z,34.87
2018-07-31T14:07:22.371Z,34.91
2018-07-31T14:09:50.403Z,34.92
2018-07-31T14:12:18.443Z,34.92
2018-07-31T14:14:46.491Z,34.85
2018-07-31T14:17:14.528Z,34.82
2018-07-31T14:19:42.648Z,34.71
2018-07-31T14:22:10.658Z,34.83
2018-07-31T14:24:38.728Z,34.67
2018-07-31T14:27:06.747Z,34.10
2018-07-31T14:29:34.779Z,34.02
2018-07-31T14:32:02.811Z,34.11
2018-07-31T14:34:30.915Z,34.30
2018-07-31T14:36:58.923Z,34.35
2018-07-31T14:39:26.978Z,34.45
2018-07-31T14:41:55.017Z,34.54
2018-07-31T14:44:23.075Z,34.58
2018-07-31T14:46:51.107Z,34.59
2018-07-31T14:49:19.160Z,34.53
2018-07-31T14:51:47.211Z,34.50
2018-07-31T14:54:15.259Z,34.56
2018-07-31T14:56:43.299Z,34.57
2018-07-31T14:59:11.330Z,34.63
2018-07-31T15:01:39.392Z,34.69
2018-07-31T15:04:07.463Z,34.65
2018-07-31T15:06:35.480Z,34.62
2018-07-31T15:09:03.991Z,34.62
2018-07-31T15:11:32.089Z,34.62
2018-07-31T15:14:00.071Z,34.63
2018-07-31T15:16:28.087Z,34.57
2018-07-31T15:18:56.140Z,34.52
2018-07-31T15:21:24.457Z,34.58
2018-07-31T15:23:52.508Z,34.59
2018-07-31T15:26:20.520Z,34.63
2018-07-31T15:28:48.563Z,34.64
2018-07-31T15:31:16.607Z,34.49
2018-07-31T15:33:44.655Z,34.77
2018-07-31T15:36:12.716Z,34.79
2018-07-31T15:38:40.732Z,34.80
2018-07-31T15:41:08.813Z,34.56
2018-07-31T15:43:36.827Z,34.55
2018-07-31T15:46:04.919Z,34.65
2018-07-31T15:48:33.038Z,34.66
2018-07-31T15:51:01.063Z,34.69
2018-07-31T15:53:29.116Z,34.74
2018-07-31T15:55:57.343Z,34.69
2018-07-31T15:58:25.350Z,34.71
2018-07-31T16:00:53.396Z,34.64
2018-07-31T16:03:21.422Z,34.62
2018-07-31T16:05:49.498Z,34.19
2018-07-31T16:08:17.491Z,34.06
2018-07-31T16:10:45.544Z,33.89
2018-07-31T16:13:13.606Z,33.87
2018-07-31T16:15:41.651Z,33.87
2018-07-31T16:18:09.701Z,33.84
2018-07-31T16:20:37.731Z,33.78
2018-07-31T16:23:05.970Z,33.71
2018-07-31T16:25:34.015Z,33.55
2018-07-31T16:28:02.087Z,33.56
2018-07-31T16:30:30.389Z,33.62
2018-07-31T16:32:58.704Z,33.64
2018-07-31T16:35:27.068Z,33.64
2018-07-31T16:37:55.143Z,33.51
2018-07-31T16:40:23.155Z,33.28
2018-07-31T16:42:51.221Z,32.85
2018-07-31T16:45:19.260Z,32.91
2018-07-31T16:47:47.343Z,32.74
2018-07-31T16:50:15.400Z,32.55
2018-07-31T16:52:43.431Z,32.75
2018-07-31T16:55:11.460Z,32.52
2018-07-31T16:57:39.500Z,32.73
2018-07-31T17:00:07.876Z,32.86
2018-07-31T17:02:35.918Z,32.90
2018-07-31T17:05:04.011Z,32.93
2018-07-31T17:07:32.049Z,32.95
2018-07-31T17:10:00.063Z,33.00
2018-07-31T17:12:28.107Z,33.04
2018-07-31T17:14:56.150Z,32.97
2018-07-31T17:17:24.167Z,32.68
2018-07-31T17:19:52.230Z,32.29
2018-07-31T17:22:20.262Z,32.45
2018-07-31T17:24:48.292Z,32.43
2018-07-31T17:27:16.332Z,32.16
2018-07-31T17:29:44.558Z,32.20
2018-07-31T17:32:12.603Z,32.10
2018-07-31T17:34:40.636Z,32.14
2018-07-31T17:37:08.678Z,32.16
2018-07-31T17:39:36.727Z,32.08
2018-07-31T17:42:04.772Z,32.05
2018-07-31T17:44:32.846Z,32.06
2018-07-31T17:47:00.882Z,32.03
2018-07-31T17:49:28.932Z,31.99
2018-07-31T17:51:56.979Z,31.67
2018-07-31T17:54:25.023Z,31.39
2018-07-31T17:56:53.072Z,31.44
2018-07-31T17:59:21.387Z,31.20
2018-07-31T18:01:49.455Z,31.00
2018-07-31T18:04:17.474Z,30.86
2018-07-31T18:06:45.531Z,30.76
2018-07-31T18:09:13.573Z,30.90
2018-07-31T18:11:41.602Z,30.97
2018-07-31T18:14:09.724Z,30.78
2018-07-31T18:16:38.267Z,30.67
2018-07-31T18:19:06.415Z,30.44
2018-07-31T18:21:34.455Z,29.97
2018-07-31T18:24:02.872Z,29.95
2018-07-31T18:26:30.946Z,30.00
2018-07-31T18:28:58.975Z,29.99
2018-07-31T18:31:27.047Z,29.99
2018-07-31T18:33:55.103Z,29.62
2018-07-31T18:36:23.146Z,29.61
2018-07-31T18:38:51.174Z,29.16
2018-07-31T18:41:19.596Z,29.12
2018-07-31T18:43:47.570Z,28.79
2018-07-31T18:46:15.686Z,28.56
2018-07-31T18:48:43.743Z,28.51
2018-07-31T18:51:11.776Z,28.50
2018-07-31T18:53:39.819Z,28.48
2018-07-31T18:56:07.847Z,28.47
2018-07-31T18:58:35.886Z,28.34
2018-07-31T19:01:03.931Z,28.14
2018-07-31T19:03:32.012Z,28.30
2018-07-31T19:06:00.027Z,28.29
2018-07-31T19:08:28.140Z,27.92
2018-07-31T19:10:56.158Z,27.90
2018-07-31T19:13:24.179Z,27.74
2018-07-31T19:15:52.223Z,27.76
2018-07-31T19:18:20.243Z,27.79
2018-07-31T19:20:48.308Z,27.70
2018-07-31T19:23:16.324Z,27.69
2018-07-31T19:25:44.347Z,27.50
2018-07-31T19:28:12.468Z,27.44
2018-07-31T19:30:40.401Z,27.41
2018-07-31T19:33:08.489Z,27.33
2018-07-31T19:35:36.468Z,27.31
2018-07-31T19:38:04.507Z,27.31
2018-07-31T19:40:32.607Z,27.18
2018-07-31T19:43:00.602Z,27.08
2018-07-31T19:45:28.727Z,26.88
2018-07-31T19:47:57.634Z,26.83
2018-07-31T19:50:26.273Z,26.72
2018-07-31T19:52:55.174Z,26.73
2018-07-31T19:55:24.009Z,26.68
2018-07-31T19:57:53.466Z,26.59
2018-07-31T20:00:22.882Z,26.58
2018-07-31T20:02:52.036Z,26.59
2018-07-31T20:05:21.447Z,26.44
2018-07-31T20:07:49.880Z,26.46
2018-07-31T20:10:18.583Z,26.40
2018-07-31T20:12:46.938Z,26.38
2018-07-31T20:15:15.099Z,26.35
2018-07-31T20:17:43.095Z,26.31
2018-07-31T20:20:11.241Z,26.31
2018-07-31T20:22:39.316Z,26.22
2018-07-31T20:25:07.459Z,26.23
2018-07-31T20:27:35.480Z,26.21
2018-07-31T20:30:03.627Z,26.15
2018-07-31T20:32:31.689Z,26.13
2018-07-31T20:34:59.767Z,26.07
2018-07-31T20:37:27.787Z,25.98
2018-07-31T20:39:56.318Z,25.96
2018-07-31T20:42:25.607Z,25.96
2018-07-31T20:44:54.789Z,25.91
2018-07-31T20:47:23.509Z,25.92
2018-07-31T20:49:51.926Z,25.75
2018-07-31T20:52:21.298Z,25.74
2018-07-31T20:54:49.862Z,25.71
2018-07-31T20:57:18.077Z,25.65
2018-07-31T20:59:46.217Z,25.62
2018-07-31T21:02:14.320Z,25.66
2018-07-31T21:04:42.339Z,25.55
2018-07-31T21:07:10.378Z,25.48
2018-07-31T21:09:38.426Z,25.38
2018-07-31T21:12:06.550Z,25.24
2018-07-31T21:14:34.559Z,25.26
2018-07-31T21:17:02.592Z,25.26
2018-07-31T21:19:30.736Z,25.20
2018-07-31T21:21:59.136Z,25.13
2018-07-31T21:24:28.441Z,25.09
2018-07-31T21:26:56.786Z,25.11
2018-07-31T21:29:25.103Z,25.08
2018-07-31T21:31:53.804Z,24.91
2018-07-31T21:34:22.215Z,24.94
2018-07-31T21:36:50.886Z,24.88
2018-07-31T21:39:18.978Z,24.78
2018-07-31T21:41:47.039Z,24.84
2018-07-31T21:44:15.094Z,24.83
2018-07-31T21:46:43.291Z,24.82
2018-07-31T21:49:11.299Z,24.78
2018-07-31T21:51:39.375Z,24.76
2018-07-31T21:54:07.499Z,24.72
2018-07-31T21:56:35.528Z,24.65
2018-07-31T21:59:03.563Z,24.68
2018-07-31T22:01:31.596Z,24.64
2018-07-31T22:03:59.675Z,24.64
2018-07-31T22:06:27.698Z,24.63
2018-07-31T22:12:27.207Z,24.55
2018-07-31T22:14:55.383Z,24.51
2018-07-31T22:17:23.423Z,24.47
2018-07-31T22:19:51.452Z,24.41
2018-07-31T22:22:19.488Z,24.43
2018-07-31T22:24:47.618Z,24.42
2018-07-31T22:27:15.593Z,24.34
2018-07-31T22:29:43.616Z,24.30
2018-07-31T22:32:11.647Z,24.26
2018-07-31T22:34:39.675Z,24.22
2018-07-31T22:37:07.691Z,24.21
2018-07-31T22:39:35.898Z,24.21
2018-07-31T22:42:03.932Z,24.17
2018-07-31T22:44:31.991Z,24.13
2018-07-31T22:46:59.991Z,24.11
2018-07-31T22:49:28.009Z,24.01
2018-07-31T22:51:57.808Z,24.03
2018-07-31T22:54:25.830Z,24.03
2018-07-31T22:56:53.863Z,24.06
2018-07-31T22:59:21.889Z,24.04
2018-07-31T23:01:49.938Z,24.01
2018-07-31T23:04:17.983Z,23.95
2018-07-31T23:06:46.011Z,23.92
2018-07-31T23:09:14.031Z,23.87
2018-07-31T23:11:42.080Z,23.87
2018-07-31T23:14:10.176Z,23.84
2018-07-31T23:16:38.187Z,23.82
2018-07-31T23:19:06.464Z,23.82
2018-07-31T23:21:34.787Z,23.81
2018-07-31T23:24:02.819Z,23.76
2018-07-31T23:26:30.931Z,23.73
2018-07-31T23:28:58.975Z,23.71
2018-07-31T23:31:26.997Z,23.69
2018-07-31T23:33:55.039Z,23.70
2018-07-31T23:36:23.066Z,23.66
2018-07-31T23:38:51.093Z,23.64
2018-07-31T23:41:19.179Z,23.57
2018-07-31T23:43:47.224Z,23.52
2018-07-31T23:46:15.247Z,23.48
2018-07-31T23:48:43.283Z,23.37
2018-07-31T23:51:11.303Z,23.35
2018-07-31T23:53:39.355Z,23.34
2018-07-31T23:56:07.375Z,23.27
2018-07-31T23:58:35.399Z,23.25
